Cheyenne, WY (82001)

12:01 AM MDT on July 30, 2016 (GMT -0600)
South High School | | Change Station

Elev 6155 ft 41.11 °N, 104.83 °W | Updated 10 minutes ago

Clear
Clear
57.2 °F
Feels Like 57.2 °F
N
1.7
Wind Variable Wind from SW

Today
High -- | Low -- °F
--% Chance of Precip.
Yesterday
High -- | Low -- °F
Precip. -- in
Pressure 30.01 in
Visibility 10.0 miles
Clouds Clear
Dew Point 52 °F
Humidity 83%
Rainfall in
Snow Depth Not available.
5:53 AM 8:17 PM
Waning Crescent, 16% visible
METAR KFEW 300558Z AUTO 18006KT 10SM CLR 14/13 A3023 RMK AO2 SLP163 T01400125 10207 20138 50006 $
Pressure 30.01 in
Visibility 10.0 miles
Clouds Clear
Dew Point 52 °F
Humidity 83%
Rainfall in
Snow Depth Not available.
5:53 AM 8:17 PM
Waning Crescent, 16% visible
METAR KFEW 300558Z AUTO 18006KT 10SM CLR 14/13 A3023 RMK AO2 SLP163 T01400125 10207 20138 50006 $

10-Day Weather Forecast

Almanac

Astronomy

Jul. 30, 2016 Rise Set
Actual Time
Civil Twilight
Nautical Twilight
Astronomical Twilight
Moon
Length of Visible Light
Length of Day
Tomorrow will be .
, % of the Moon is Illuminated

Today's Extremes

State Highs State Lows

Community

WunderPhotos

Upload Photos

1,928,508 photos uploaded!

WunderBlog® & News

Nearby

Air Quality

  Air Quality AQ Index Pollutant
Not available.

Snow Depth

Station Depth Elevation

Earthquake Activity

City Distance Mag. Time & Date
Minimum magnitude displayed is 2.5.

Coastal Water Temperatures

Place Temperature

Stations

Nearby Weather Stations

Station Location Temp. Windchill Dew Point Humidity Wind Precip. Elev Updated Type
                   

Watches & Warnings

There are currently no watches in effect.